sensor_id;sensor_type;location;lat;lon;timestamp;P1;P2;P0
78063;PMS5003;67429;51.596;-3.264;2023-09-30T00:01:58;6;5;
78063;PMS5003;67429;51.596;-3.264;2023-09-30T00:04:24;4;4;
78063;PMS5003;67429;51.596;-3.264;2023-09-30T00:06:49;6;5;
78063;PMS5003;67429;51.596;-3.264;2023-09-30T00:09:14;6;5;
78063;PMS5003;67429;51.596;-3.264;2023-09-30T00:11:40;6;5;
78063;PMS5003;67429;51.596;-3.264;2023-09-30T00:14:06;5;5;
78063;PMS5003;67429;51.596;-3.264;2023-09-30T00:16:31;6;5;
78063;PMS5003;67429;51.596;-3.264;2023-09-30T00:18:57;5;5;
78063;PMS5003;67429;51.596;-3.264;2023-09-30T00:21:24;5;5;
78063;PMS5003;67429;51.596;-3.264;2023-09-30T00:23:48;4;4;
78063;PMS5003;67429;51.596;-3.264;2023-09-30T00:26:13;7;5;
78063;PMS5003;67429;51.596;-3.264;2023-09-30T00:28:39;5;4;
78063;PMS5003;67429;51.596;-3.264;2023-09-30T00:31:06;4;3;
78063;PMS5003;67429;51.596;-3.264;2023-09-30T00:33:30;3;3;
78063;PMS5003;67429;51.596;-3.264;2023-09-30T00:35:57;3;3;
78063;PMS5003;67429;51.596;-3.264;2023-09-30T00:38:21;3;3;
78063;PMS5003;67429;51.596;-3.264;2023-09-30T00:40:47;3;2;
78063;PMS5003;67429;51.596;-3.264;2023-09-30T00:45:39;3;3;
78063;PMS5003;67429;51.596;-3.264;2023-09-30T00:48:03;3;3;
78063;PMS5003;67429;51.596;-3.264;2023-09-30T00:50:29;2;2;
78063;PMS5003;67429;51.596;-3.264;2023-09-30T00:52:54;2;2;
78063;PMS5003;67429;51.596;-3.264;2023-09-30T00:55:21;3;3;
78063;PMS5003;67429;51.596;-3.264;2023-09-30T00:57:46;3;3;
78063;PMS5003;67429;51.596;-3.264;2023-09-30T01:00:11;3;3;
78063;PMS5003;67429;51.596;-3.264;2023-09-30T01:02:36;7;6;
78063;PMS5003;67429;51.596;-3.264;2023-09-30T01:05:03;4;4;
78063;PMS5003;67429;51.596;-3.264;2023-09-30T01:07:27;2;2;
78063;PMS5003;67429;51.596;-3.264;2023-09-30T01:09:53;4;4;
78063;PMS5003;67429;51.596;-3.264;2023-09-30T01:12:18;2;2;
78063;PMS5003;67429;51.596;-3.264;2023-09-30T01:14:44;3;3;
78063;PMS5003;67429;51.596;-3.264;2023-09-30T01:17:09;4;4;
78063;PMS5003;67429;51.596;-3.264;2023-09-30T01:19:35;6;4;
78063;PMS5003;67429;51.596;-3.264;2023-09-30T01:22:01;3;3;
78063;PMS5003;67429;51.596;-3.264;2023-09-30T01:24:26;2;1;
78063;PMS5003;67429;51.596;-3.264;2023-09-30T01:26:52;4;4;
78063;PMS5003;67429;51.596;-3.264;2023-09-30T01:29:17;5;4;
78063;PMS5003;67429;51.596;-3.264;2023-09-30T01:31:43;2;2;
78063;PMS5003;67429;51.596;-3.264;2023-09-30T01:34:09;3;2;
78063;PMS5003;67429;51.596;-3.264;2023-09-30T01:36:34;3;3;
78063;PMS5003;67429;51.596;-3.264;2023-09-30T01:39:00;4;3;
78063;PMS5003;67429;51.596;-3.264;2023-09-30T01:41:26;3;2;
78063;PMS5003;67429;51.596;-3.264;2023-09-30T01:43:51;5;3;
78063;PMS5003;67429;51.596;-3.264;2023-09-30T01:46:16;3;2;
78063;PMS5003;67429;51.596;-3.264;2023-09-30T01:48:42;5;4;
78063;PMS5003;67429;51.596;-3.264;2023-09-30T01:51:08;3;1;
78063;PMS5003;67429;51.596;-3.264;2023-09-30T01:53:33;2;2;
78063;PMS5003;67429;51.596;-3.264;2023-09-30T01:55:59;2;2;
78063;PMS5003;67429;51.596;-3.264;2023-09-30T01:58:25;2;2;
78063;PMS5003;67429;51.596;-3.264;2023-09-30T02:00:50;2;1;
78063;PMS5003;67429;51.596;-3.264;2023-09-30T02:03:16;2;2;
78063;PMS5003;67429;51.596;-3.264;2023-09-30T02:05:41;6;4;
78063;PMS5003;67429;51.596;-3.264;2023-09-30T02:08:07;4;4;
78063;PMS5003;67429;51.596;-3.264;2023-09-30T02:10:33;4;4;
78063;PMS5003;67429;51.596;-3.264;2023-09-30T02:12:58;2;2;
78063;PMS5003;67429;51.596;-3.264;2023-09-30T02:15:24;5;5;
78063;PMS5003;67429;51.596;-3.264;2023-09-30T02:17:49;4;2;
78063;PMS5003;67429;51.596;-3.264;2023-09-30T02:20:15;5;5;
78063;PMS5003;67429;51.596;-3.264;2023-09-30T02:22:40;5;4;
78063;PMS5003;67429;51.596;-3.264;2023-09-30T02:25:06;3;3;
78063;PMS5003;67429;51.596;-3.264;2023-09-30T02:27:31;4;4;
78063;PMS5003;67429;51.596;-3.264;2023-09-30T02:29:57;3;3;
78063;PMS5003;67429;51.596;-3.264;2023-09-30T02:32:22;4;3;
78063;PMS5003;67429;51.596;-3.264;2023-09-30T02:34:48;3;3;
78063;PMS5003;67429;51.596;-3.264;2023-09-30T02:37:13;1;1;
78063;PMS5003;67429;51.596;-3.264;2023-09-30T02:39:39;2;1;
78063;PMS5003;67429;51.596;-3.264;2023-09-30T02:42:04;3;3;
78063;PMS5003;67429;51.596;-3.264;2023-09-30T02:44:30;2;2;
78063;PMS5003;67429;51.596;-3.264;2023-09-30T02:46:55;4;3;
78063;PMS5003;67429;51.596;-3.264;2023-09-30T02:49:21;5;2;
78063;PMS5003;67429;51.596;-3.264;2023-09-30T02:51:46;3;1;
78063;PMS5003;67429;51.596;-3.264;2023-09-30T02:54:12;2;2;
78063;PMS5003;67429;51.596;-3.264;2023-09-30T02:56:37;2;2;
78063;PMS5003;67429;51.596;-3.264;2023-09-30T02:59:03;3;3;
78063;PMS5003;67429;51.596;-3.264;2023-09-30T03:01:29;2;1;
78063;PMS5003;67429;51.596;-3.264;2023-09-30T03:03:54;3;3;
78063;PMS5003;67429;51.596;-3.264;2023-09-30T03:06:25;4;4;
78063;PMS5003;67429;51.596;-3.264;2023-09-30T03:08:45;3;3;
78063;PMS5003;67429;51.596;-3.264;2023-09-30T03:11:10;1;1;
78063;PMS5003;67429;51.596;-3.264;2023-09-30T03:13:36;3;3;
78063;PMS5003;67429;51.596;-3.264;2023-09-30T03:16:02;3;2;
78063;PMS5003;67429;51.596;-3.264;2023-09-30T03:18:29;5;5;
78063;PMS5003;67429;51.596;-3.264;2023-09-30T03:20:58;4;4;
78063;PMS5003;67429;51.596;-3.264;2023-09-30T03:23:19;4;3;
78063;PMS5003;67429;51.596;-3.264;2023-09-30T03:25:44;5;5;
78063;PMS5003;67429;51.596;-3.264;2023-09-30T03:28:10;3;3;
78063;PMS5003;67429;51.596;-3.264;2023-09-30T03:30:36;2;1;
78063;PMS5003;67429;51.596;-3.264;2023-09-30T03:33:01;2;2;
78063;PMS5003;67429;51.596;-3.264;2023-09-30T03:35:28;2;2;
78063;PMS5003;67429;51.596;-3.264;2023-09-30T03:37:53;2;2;
78063;PMS5003;67429;51.596;-3.264;2023-09-30T03:40:18;3;2;
78063;PMS5003;67429;51.596;-3.264;2023-09-30T03:42:44;2;2;
78063;PMS5003;67429;51.596;-3.264;2023-09-30T03:45:09;1;1;
78063;PMS5003;67429;51.596;-3.264;2023-09-30T03:47:35;2;2;
78063;PMS5003;67429;51.596;-3.264;2023-09-30T03:50:00;2;2;
78063;PMS5003;67429;51.596;-3.264;2023-09-30T03:52:26;2;1;
78063;PMS5003;67429;51.596;-3.264;2023-09-30T03:54:51;7;7;
78063;PMS5003;67429;51.596;-3.264;2023-09-30T03:57:17;3;3;
78063;PMS5003;67429;51.596;-3.264;2023-09-30T03:59:42;3;3;
78063;PMS5003;67429;51.596;-3.264;2023-09-30T04:02:07;1;1;
78063;PMS5003;67429;51.596;-3.264;2023-09-30T04:04:33;2;2;
78063;PMS5003;67429;51.596;-3.264;2023-09-30T04:06:59;1;1;
78063;PMS5003;67429;51.596;-3.264;2023-09-30T04:09:24;2;2;
78063;PMS5003;67429;51.596;-3.264;2023-09-30T04:11:50;4;4;
78063;PMS5003;67429;51.596;-3.264;2023-09-30T04:14:15;7;4;
78063;PMS5003;67429;51.596;-3.264;2023-09-30T04:16:41;3;3;
78063;PMS5003;67429;51.596;-3.264;2023-09-30T04:19:07;2;2;
78063;PMS5003;67429;51.596;-3.264;2023-09-30T04:21:32;2;2;
78063;PMS5003;67429;51.596;-3.264;2023-09-30T04:23:58;2;2;
78063;PMS5003;67429;51.596;-3.264;2023-09-30T04:26:23;2;2;
78063;PMS5003;67429;51.596;-3.264;2023-09-30T04:28:49;2;2;
78063;PMS5003;67429;51.596;-3.264;2023-09-30T04:31:15;4;3;
78063;PMS5003;67429;51.596;-3.264;2023-09-30T04:33:40;5;5;
78063;PMS5003;67429;51.596;-3.264;2023-09-30T04:36:06;4;4;
78063;PMS5003;67429;51.596;-3.264;2023-09-30T04:38:31;2;2;
78063;PMS5003;67429;51.596;-3.264;2023-09-30T04:40:57;3;3;
78063;PMS5003;67429;51.596;-3.264;2023-09-30T04:43:23;3;3;
78063;PMS5003;67429;51.596;-3.264;2023-09-30T04:45:48;3;3;
78063;PMS5003;67429;51.596;-3.264;2023-09-30T04:48:13;3;3;
78063;PMS5003;67429;51.596;-3.264;2023-09-30T04:50:41;4;3;
78063;PMS5003;67429;51.596;-3.264;2023-09-30T04:53:05;3;3;
78063;PMS5003;67429;51.596;-3.264;2023-09-30T04:55:30;3;2;
78063;PMS5003;67429;51.596;-3.264;2023-09-30T04:57:56;3;2;
78063;PMS5003;67429;51.596;-3.264;2023-09-30T05:00:23;5;4;
78063;PMS5003;67429;51.596;-3.264;2023-09-30T05:02:47;3;3;
78063;PMS5003;67429;51.596;-3.264;2023-09-30T05:05:13;3;3;
78063;PMS5003;67429;51.596;-3.264;2023-09-30T05:07:38;3;3;
78063;PMS5003;67429;51.596;-3.264;2023-09-30T05:10:04;3;3;
78063;PMS5003;67429;51.596;-3.264;2023-09-30T05:12:29;2;2;
78063;PMS5003;67429;51.596;-3.264;2023-09-30T05:14:55;2;2;
78063;PMS5003;67429;51.596;-3.264;2023-09-30T05:17:20;3;2;
78063;PMS5003;67429;51.596;-3.264;2023-09-30T05:19:46;3;3;
78063;PMS5003;67429;51.596;-3.264;2023-09-30T05:22:11;4;3;
78063;PMS5003;67429;51.596;-3.264;2023-09-30T05:24:37;4;4;
78063;PMS5003;67429;51.596;-3.264;2023-09-30T05:27:03;2;2;
78063;PMS5003;67429;51.596;-3.264;2023-09-30T05:29:28;3;3;
78063;PMS5003;67429;51.596;-3.264;2023-09-30T05:31:54;3;2;
78063;PMS5003;67429;51.596;-3.264;2023-09-30T05:34:19;4;4;
78063;PMS5003;67429;51.596;-3.264;2023-09-30T05:36:47;3;2;
78063;PMS5003;67429;51.596;-3.264;2023-09-30T05:39:10;4;4;
78063;PMS5003;67429;51.596;-3.264;2023-09-30T05:41:36;6;5;
78063;PMS5003;67429;51.596;-3.264;2023-09-30T05:44:02;2;2;
78063;PMS5003;67429;51.596;-3.264;2023-09-30T05:46:27;2;2;
78063;PMS5003;67429;51.596;-3.264;2023-09-30T05:48:53;2;2;
78063;PMS5003;67429;51.596;-3.264;2023-09-30T05:51:18;3;3;
78063;PMS5003;67429;51.596;-3.264;2023-09-30T05:53:44;4;4;
78063;PMS5003;67429;51.596;-3.264;2023-09-30T05:56:10;3;3;
78063;PMS5003;67429;51.596;-3.264;2023-09-30T05:58:36;3;2;
78063;PMS5003;67429;51.596;-3.264;2023-09-30T06:01:01;5;5;
78063;PMS5003;67429;51.596;-3.264;2023-09-30T06:03:27;5;3;
78063;PMS5003;67429;51.596;-3.264;2023-09-30T06:05:52;3;3;
78063;PMS5003;67429;51.596;-3.264;2023-09-30T06:08:18;4;3;
78063;PMS5003;67429;51.596;-3.264;2023-09-30T06:10:44;1;1;
78063;PMS5003;67429;51.596;-3.264;2023-09-30T06:13:09;6;4;
78063;PMS5003;67429;51.596;-3.264;2023-09-30T06:15:36;3;3;
78063;PMS5003;67429;51.596;-3.264;2023-09-30T06:18:00;3;3;
78063;PMS5003;67429;51.596;-3.264;2023-09-30T06:20:26;5;3;
78063;PMS5003;67429;51.596;-3.264;2023-09-30T06:22:52;5;5;
78063;PMS5003;67429;51.596;-3.264;2023-09-30T06:25:17;4;4;
78063;PMS5003;67429;51.596;-3.264;2023-09-30T06:27:43;5;4;
78063;PMS5003;67429;51.596;-3.264;2023-09-30T06:30:08;3;3;
78063;PMS5003;67429;51.596;-3.264;2023-09-30T06:32:33;3;3;
78063;PMS5003;67429;51.596;-3.264;2023-09-30T06:34:59;3;3;
78063;PMS5003;67429;51.596;-3.264;2023-09-30T06:37:25;6;5;
78063;PMS5003;67429;51.596;-3.264;2023-09-30T06:39:50;4;3;
78063;PMS5003;67429;51.596;-3.264;2023-09-30T06:42:16;5;5;
78063;PMS5003;67429;51.596;-3.264;2023-09-30T06:44:41;5;4;
78063;PMS5003;67429;51.596;-3.264;2023-09-30T06:47:08;4;4;
78063;PMS5003;67429;51.596;-3.264;2023-09-30T06:49:33;3;3;
78063;PMS5003;67429;51.596;-3.264;2023-09-30T06:51:58;4;3;
78063;PMS5003;67429;51.596;-3.264;2023-09-30T06:54:24;5;4;
78063;PMS5003;67429;51.596;-3.264;2023-09-30T06:56:49;3;3;
78063;PMS5003;67429;51.596;-3.264;2023-09-30T06:59:15;3;3;
78063;PMS5003;67429;51.596;-3.264;2023-09-30T07:01:41;5;4;
78063;PMS5003;67429;51.596;-3.264;2023-09-30T07:04:07;2;2;
78063;PMS5003;67429;51.596;-3.264;2023-09-30T07:06:32;3;3;
78063;PMS5003;67429;51.596;-3.264;2023-09-30T07:08:57;6;5;
78063;PMS5003;67429;51.596;-3.264;2023-09-30T07:11:28;5;4;
78063;PMS5003;67429;51.596;-3.264;2023-09-30T07:13:48;3;3;
78063;PMS5003;67429;51.596;-3.264;2023-09-30T07:16:16;14;10;
78063;PMS5003;67429;51.596;-3.264;2023-09-30T07:18:39;6;6;
78063;PMS5003;67429;51.596;-3.264;2023-09-30T07:21:05;3;3;
78063;PMS5003;67429;51.596;-3.264;2023-09-30T07:23:30;3;3;
78063;PMS5003;67429;51.596;-3.264;2023-09-30T07:25:56;4;4;
78063;PMS5003;67429;51.596;-3.264;2023-09-30T07:28:21;4;4;
78063;PMS5003;67429;51.596;-3.264;2023-09-30T07:30:47;4;4;
78063;PMS5003;67429;51.596;-3.264;2023-09-30T07:33:13;5;5;
78063;PMS5003;67429;51.596;-3.264;2023-09-30T07:35:38;7;4;
78063;PMS5003;67429;51.596;-3.264;2023-09-30T07:38:04;3;3;
78063;PMS5003;67429;51.596;-3.264;2023-09-30T07:40:29;2;1;
78063;PMS5003;67429;51.596;-3.264;2023-09-30T07:42:56;3;2;
78063;PMS5003;67429;51.596;-3.264;2023-09-30T07:45:20;4;4;
78063;PMS5003;67429;51.596;-3.264;2023-09-30T07:47:46;5;4;
78063;PMS5003;67429;51.596;-3.264;2023-09-30T07:50:11;5;5;
78063;PMS5003;67429;51.596;-3.264;2023-09-30T07:52:37;6;6;
78063;PMS5003;67429;51.596;-3.264;2023-09-30T07:55:02;5;5;
78063;PMS5003;67429;51.596;-3.264;2023-09-30T07:57:28;6;6;
78063;PMS5003;67429;51.596;-3.264;2023-09-30T07:59:53;5;5;
78063;PMS5003;67429;51.596;-3.264;2023-09-30T08:02:19;3;2;
78063;PMS5003;67429;51.596;-3.264;2023-09-30T08:04:44;4;4;
78063;PMS5003;67429;51.596;-3.264;2023-09-30T08:07:10;5;4;
78063;PMS5003;67429;51.596;-3.264;2023-09-30T08:09:35;3;3;
78063;PMS5003;67429;51.596;-3.264;2023-09-30T08:12:01;3;3;
78063;PMS5003;67429;51.596;-3.264;2023-09-30T08:14:27;4;4;
78063;PMS5003;67429;51.596;-3.264;2023-09-30T08:16:52;6;5;
78063;PMS5003;67429;51.596;-3.264;2023-09-30T08:19:18;6;6;
78063;PMS5003;67429;51.596;-3.264;2023-09-30T08:21:43;4;4;
78063;PMS5003;67429;51.596;-3.264;2023-09-30T08:24:09;5;5;
78063;PMS5003;67429;51.596;-3.264;2023-09-30T08:26:34;9;8;
78063;PMS5003;67429;51.596;-3.264;2023-09-30T08:29:00;7;5;
78063;PMS5003;67429;51.596;-3.264;2023-09-30T08:31:25;7;7;
78063;PMS5003;67429;51.596;-3.264;2023-09-30T08:33:51;7;6;
78063;PMS5003;67429;51.596;-3.264;2023-09-30T08:36:17;6;6;
78063;PMS5003;67429;51.596;-3.264;2023-09-30T08:38:42;6;6;
78063;PMS5003;67429;51.596;-3.264;2023-09-30T08:41:07;9;7;
78063;PMS5003;67429;51.596;-3.264;2023-09-30T08:43:33;6;6;
78063;PMS5003;67429;51.596;-3.264;2023-09-30T08:45:58;11;10;
78063;PMS5003;67429;51.596;-3.264;2023-09-30T08:48:24;5;5;
78063;PMS5003;67429;51.596;-3.264;2023-09-30T08:50:50;8;7;
78063;PMS5003;67429;51.596;-3.264;2023-09-30T08:53:16;6;5;
78063;PMS5003;67429;51.596;-3.264;2023-09-30T08:55:41;8;7;
78063;PMS5003;67429;51.596;-3.264;2023-09-30T08:58:06;6;6;
78063;PMS5003;67429;51.596;-3.264;2023-09-30T09:00:31;5;5;
78063;PMS5003;67429;51.596;-3.264;2023-09-30T09:02:57;6;6;
78063;PMS5003;67429;51.596;-3.264;2023-09-30T09:05:22;6;6;
78063;PMS5003;67429;51.596;-3.264;2023-09-30T09:07:48;6;6;
78063;PMS5003;67429;51.596;-3.264;2023-09-30T09:10:14;5;5;
78063;PMS5003;67429;51.596;-3.264;2023-09-30T09:12:40;6;6;
78063;PMS5003;67429;51.596;-3.264;2023-09-30T09:15:05;7;7;
78063;PMS5003;67429;51.596;-3.264;2023-09-30T09:19:59;3;3;
78063;PMS5003;67429;51.596;-3.264;2023-09-30T09:22:21;5;4;
78063;PMS5003;67429;51.596;-3.264;2023-09-30T09:24:47;4;4;
78063;PMS5003;67429;51.596;-3.264;2023-09-30T09:27:12;3;3;
78063;PMS5003;67429;51.596;-3.264;2023-09-30T09:29:38;4;4;
78063;PMS5003;67429;51.596;-3.264;2023-09-30T09:32:07;5;4;
78063;PMS5003;67429;51.596;-3.264;2023-09-30T09:34:29;5;5;
78063;PMS5003;67429;51.596;-3.264;2023-09-30T09:36:54;5;5;
78063;PMS5003;67429;51.596;-3.264;2023-09-30T09:39:23;6;5;
78063;PMS5003;67429;51.596;-3.264;2023-09-30T09:41:50;4;4;
78063;PMS5003;67429;51.596;-3.264;2023-09-30T09:44:11;5;5;
78063;PMS5003;67429;51.596;-3.264;2023-09-30T09:46:36;7;6;
78063;PMS5003;67429;51.596;-3.264;2023-09-30T09:49:02;7;6;
78063;PMS5003;67429;51.596;-3.264;2023-09-30T09:51:27;6;5;
78063;PMS5003;67429;51.596;-3.264;2023-09-30T09:53:52;9;7;
78063;PMS5003;67429;51.596;-3.264;2023-09-30T09:56:18;6;5;
78063;PMS5003;67429;51.596;-3.264;2023-09-30T09:58:44;6;6;
78063;PMS5003;67429;51.596;-3.264;2023-09-30T10:01:09;7;7;
78063;PMS5003;67429;51.596;-3.264;2023-09-30T10:03:34;5;5;
78063;PMS5003;67429;51.596;-3.264;2023-09-30T10:06:02;3;3;
78063;PMS5003;67429;51.596;-3.264;2023-09-30T10:08:30;8;7;
78063;PMS5003;67429;51.596;-3.264;2023-09-30T10:10:51;3;3;
78063;PMS5003;67429;51.596;-3.264;2023-09-30T10:15:43;3;3;
78063;PMS5003;67429;51.596;-3.264;2023-09-30T10:18:08;3;2;
78063;PMS5003;67429;51.596;-3.264;2023-09-30T10:20:34;4;3;
78063;PMS5003;67429;51.596;-3.264;2023-09-30T10:27:49;4;4;
78063;PMS5003;67429;51.596;-3.264;2023-09-30T10:30:15;2;2;
78063;PMS5003;67429;51.596;-3.264;2023-09-30T10:35:07;3;2;
78063;PMS5003;67429;51.596;-3.264;2023-09-30T10:37:31;3;3;
78063;PMS5003;67429;51.596;-3.264;2023-09-30T10:39:57;6;4;
78063;PMS5003;67429;51.596;-3.264;2023-09-30T10:44:48;5;5;
78063;PMS5003;67429;51.596;-3.264;2023-09-30T10:49:40;2;2;
78063;PMS5003;67429;51.596;-3.264;2023-09-30T10:52:04;5;5;
78063;PMS5003;67429;51.596;-3.264;2023-09-30T10:54:29;3;3;
78063;PMS5003;67429;51.596;-3.264;2023-09-30T10:56:55;2;2;
78063;PMS5003;67429;51.596;-3.264;2023-09-30T10:59:21;6;5;
78063;PMS5003;67429;51.596;-3.264;2023-09-30T11:01:46;4;4;
78063;PMS5003;67429;51.596;-3.264;2023-09-30T11:04:11;2;2;
78063;PMS5003;67429;51.596;-3.264;2023-09-30T11:06:39;5;5;
78063;PMS5003;67429;51.596;-3.264;2023-09-30T11:09:02;3;3;
78063;PMS5003;67429;51.596;-3.264;2023-09-30T11:11:34;3;3;
78063;PMS5003;67429;51.596;-3.264;2023-09-30T11:13:53;4;4;
78063;PMS5003;67429;51.596;-3.264;2023-09-30T11:16:19;5;4;
78063;PMS5003;67429;51.596;-3.264;2023-09-30T11:18:44;5;5;
78063;PMS5003;67429;51.596;-3.264;2023-09-30T11:21:11;3;3;
78063;PMS5003;67429;51.596;-3.264;2023-09-30T11:23:36;3;3;
78063;PMS5003;67429;51.596;-3.264;2023-09-30T11:26:00;5;5;
78063;PMS5003;67429;51.596;-3.264;2023-09-30T11:28:34;5;4;
78063;PMS5003;67429;51.596;-3.264;2023-09-30T11:30:53;2;2;
78063;PMS5003;67429;51.596;-3.264;2023-09-30T11:33:17;4;3;
78063;PMS5003;67429;51.596;-3.264;2023-09-30T11:38:08;8;7;
78063;PMS5003;67429;51.596;-3.264;2023-09-30T11:40:33;3;3;
78063;PMS5003;67429;51.596;-3.264;2023-09-30T11:43:07;3;3;
78063;PMS5003;67429;51.596;-3.264;2023-09-30T11:45:24;4;3;
78063;PMS5003;67429;51.596;-3.264;2023-09-30T11:47:49;3;3;
78063;PMS5003;67429;51.596;-3.264;2023-09-30T11:50:15;5;5;
78063;PMS5003;67429;51.596;-3.264;2023-09-30T11:52:44;4;4;
78063;PMS5003;67429;51.596;-3.264;2023-09-30T11:55:06;5;4;
78063;PMS5003;67429;51.596;-3.264;2023-09-30T11:57:31;3;3;
78063;PMS5003;67429;51.596;-3.264;2023-09-30T11:59:56;5;4;
78063;PMS5003;67429;51.596;-3.264;2023-09-30T12:02:22;5;4;
78063;PMS5003;67429;51.596;-3.264;2023-09-30T12:04:47;6;4;
78063;PMS5003;67429;51.596;-3.264;2023-09-30T12:07:13;5;5;
78063;PMS5003;67429;51.596;-3.264;2023-09-30T12:09:39;7;6;
78063;PMS5003;67429;51.596;-3.264;2023-09-30T12:12:04;4;4;
78063;PMS5003;67429;51.596;-3.264;2023-09-30T12:14:29;3;3;
78063;PMS5003;67429;51.596;-3.264;2023-09-30T12:16:54;3;3;
78063;PMS5003;67429;51.596;-3.264;2023-09-30T12:19:20;4;4;
78063;PMS5003;67429;51.596;-3.264;2023-09-30T12:21:46;6;5;
78063;PMS5003;67429;51.596;-3.264;2023-09-30T12:24:12;4;3;
78063;PMS5003;67429;51.596;-3.264;2023-09-30T12:26:37;5;5;
78063;PMS5003;67429;51.596;-3.264;2023-09-30T12:29:02;4;3;
78063;PMS5003;67429;51.596;-3.264;2023-09-30T12:31:27;3;2;
78063;PMS5003;67429;51.596;-3.264;2023-09-30T12:33:54;3;3;
78063;PMS5003;67429;51.596;-3.264;2023-09-30T12:36:18;1;1;
78063;PMS5003;67429;51.596;-3.264;2023-09-30T12:38:44;3;3;
78063;PMS5003;67429;51.596;-3.264;2023-09-30T12:41:09;4;4;
78063;PMS5003;67429;51.596;-3.264;2023-09-30T12:43:35;4;4;
78063;PMS5003;67429;51.596;-3.264;2023-09-30T12:46:00;3;3;
78063;PMS5003;67429;51.596;-3.264;2023-09-30T12:48:26;3;3;
78063;PMS5003;67429;51.596;-3.264;2023-09-30T12:50:51;3;3;
78063;PMS5003;67429;51.596;-3.264;2023-09-30T12:53:17;2;2;
78063;PMS5003;67429;51.596;-3.264;2023-09-30T12:55:42;3;3;
78063;PMS5003;67429;51.596;-3.264;2023-09-30T12:58:08;2;2;
78063;PMS5003;67429;51.596;-3.264;2023-09-30T13:00:33;3;3;
78063;PMS5003;67429;51.596;-3.264;2023-09-30T13:02:59;4;3;
78063;PMS5003;67429;51.596;-3.264;2023-09-30T13:05:24;4;3;
78063;PMS5003;67429;51.596;-3.264;2023-09-30T13:07:49;3;3;
78063;PMS5003;67429;51.596;-3.264;2023-09-30T13:10:15;1;1;
78063;PMS5003;67429;51.596;-3.264;2023-09-30T13:12:40;4;3;
78063;PMS5003;67429;51.596;-3.264;2023-09-30T13:15:06;2;2;
78063;PMS5003;67429;51.596;-3.264;2023-09-30T13:17:32;2;2;
78063;PMS5003;67429;51.596;-3.264;2023-09-30T13:19:57;4;4;
78063;PMS5003;67429;51.596;-3.264;2023-09-30T13:22:22;3;3;
78063;PMS5003;67429;51.596;-3.264;2023-09-30T13:24:47;3;3;
78063;PMS5003;67429;51.596;-3.264;2023-09-30T13:27:13;4;2;
78063;PMS5003;67429;51.596;-3.264;2023-09-30T13:29:38;4;3;
78063;PMS5003;67429;51.596;-3.264;2023-09-30T13:32:05;3;3;
78063;PMS5003;67429;51.596;-3.264;2023-09-30T13:34:29;3;3;
78063;PMS5003;67429;51.596;-3.264;2023-09-30T13:36:55;4;4;
78063;PMS5003;67429;51.596;-3.264;2023-09-30T13:39:21;3;3;
78063;PMS5003;67429;51.596;-3.264;2023-09-30T13:41:46;3;2;
78063;PMS5003;67429;51.596;-3.264;2023-09-30T13:44:11;5;5;
78063;PMS5003;67429;51.596;-3.264;2023-09-30T13:46:37;1;1;
78063;PMS5003;67429;51.596;-3.264;2023-09-30T13:49:03;4;4;
78063;PMS5003;67429;51.596;-3.264;2023-09-30T13:51:28;3;3;
78063;PMS5003;67429;51.596;-3.264;2023-09-30T13:53:53;4;4;
78063;PMS5003;67429;51.596;-3.264;2023-09-30T13:56:19;4;3;
78063;PMS5003;67429;51.596;-3.264;2023-09-30T13:58:44;4;4;
78063;PMS5003;67429;51.596;-3.264;2023-09-30T14:01:14;5;5;
78063;PMS5003;67429;51.596;-3.264;2023-09-30T14:03:36;4;3;
78063;PMS5003;67429;51.596;-3.264;2023-09-30T14:06:01;7;7;
78063;PMS5003;67429;51.596;-3.264;2023-09-30T14:08:27;6;5;
78063;PMS5003;67429;51.596;-3.264;2023-09-30T14:10:54;6;5;
78063;PMS5003;67429;51.596;-3.264;2023-09-30T14:13:17;6;6;
78063;PMS5003;67429;51.596;-3.264;2023-09-30T14:15:43;5;5;
78063;PMS5003;67429;51.596;-3.264;2023-09-30T14:18:08;6;5;
78063;PMS5003;67429;51.596;-3.264;2023-09-30T14:20:34;10;9;
78063;PMS5003;67429;51.596;-3.264;2023-09-30T14:22:59;9;8;
78063;PMS5003;67429;51.596;-3.264;2023-09-30T14:25:25;10;10;
78063;PMS5003;67429;51.596;-3.264;2023-09-30T14:27:50;8;8;
78063;PMS5003;67429;51.596;-3.264;2023-09-30T14:30:16;6;6;
78063;PMS5003;67429;51.596;-3.264;2023-09-30T14:32:41;10;9;
78063;PMS5003;67429;51.596;-3.264;2023-09-30T14:35:06;10;8;
78063;PMS5003;67429;51.596;-3.264;2023-09-30T14:37:32;7;6;
78063;PMS5003;67429;51.596;-3.264;2023-09-30T14:39:57;9;9;
78063;PMS5003;67429;51.596;-3.264;2023-09-30T14:42:23;7;6;
78063;PMS5003;67429;51.596;-3.264;2023-09-30T14:44:48;8;7;
78063;PMS5003;67429;51.596;-3.264;2023-09-30T14:47:14;7;7;
78063;PMS5003;67429;51.596;-3.264;2023-09-30T14:49:39;8;8;
78063;PMS5003;67429;51.596;-3.264;2023-09-30T14:52:05;9;7;
78063;PMS5003;67429;51.596;-3.264;2023-09-30T14:54:30;7;7;
78063;PMS5003;67429;51.596;-3.264;2023-09-30T14:56:56;8;6;
78063;PMS5003;67429;51.596;-3.264;2023-09-30T14:59:21;9;8;
78063;PMS5003;67429;51.596;-3.264;2023-09-30T15:01:47;9;7;
78063;PMS5003;67429;51.596;-3.264;2023-09-30T15:04:12;8;7;
78063;PMS5003;67429;51.596;-3.264;2023-09-30T15:06:38;9;8;
78063;PMS5003;67429;51.596;-3.264;2023-09-30T15:09:03;7;7;
78063;PMS5003;67429;51.596;-3.264;2023-09-30T15:11:28;7;6;
78063;PMS5003;67429;51.596;-3.264;2023-09-30T15:13:54;9;8;
78063;PMS5003;67429;51.596;-3.264;2023-09-30T15:16:20;8;8;
78063;PMS5003;67429;51.596;-3.264;2023-09-30T15:18:45;6;6;
78063;PMS5003;67429;51.596;-3.264;2023-09-30T15:21:10;8;8;
78063;PMS5003;67429;51.596;-3.264;2023-09-30T15:23:36;9;8;
78063;PMS5003;67429;51.596;-3.264;2023-09-30T15:26:01;12;12;
78063;PMS5003;67429;51.596;-3.264;2023-09-30T15:28:27;8;8;
78063;PMS5003;67429;51.596;-3.264;2023-09-30T15:30:52;8;7;
78063;PMS5003;67429;51.596;-3.264;2023-09-30T15:33:18;7;5;
78063;PMS5003;67429;51.596;-3.264;2023-09-30T15:35:43;10;9;
78063;PMS5003;67429;51.596;-3.264;2023-09-30T15:38:08;8;7;
78063;PMS5003;67429;51.596;-3.264;2023-09-30T15:40:35;7;7;
78063;PMS5003;67429;51.596;-3.264;2023-09-30T15:42:59;7;7;
78063;PMS5003;67429;51.596;-3.264;2023-09-30T15:45:24;8;6;
78063;PMS5003;67429;51.596;-3.264;2023-09-30T15:47:50;8;7;
78063;PMS5003;67429;51.596;-3.264;2023-09-30T15:50:15;5;5;
78063;PMS5003;67429;51.596;-3.264;2023-09-30T15:52:41;8;7;
78063;PMS5003;67429;51.596;-3.264;2023-09-30T15:55:07;9;8;
78063;PMS5003;67429;51.596;-3.264;2023-09-30T15:57:31;9;7;
78063;PMS5003;67429;51.596;-3.264;2023-09-30T15:59:57;11;9;
78063;PMS5003;67429;51.596;-3.264;2023-09-30T16:02:22;7;6;
78063;PMS5003;67429;51.596;-3.264;2023-09-30T16:04:48;5;5;
78063;PMS5003;67429;51.596;-3.264;2023-09-30T16:07:13;9;9;
78063;PMS5003;67429;51.596;-3.264;2023-09-30T16:09:38;10;9;
78063;PMS5003;67429;51.596;-3.264;2023-09-30T16:12:05;12;10;
78063;PMS5003;67429;51.596;-3.264;2023-09-30T16:14:31;8;7;
78063;PMS5003;67429;51.596;-3.264;2023-09-30T16:16:55;8;8;
78063;PMS5003;67429;51.596;-3.264;2023-09-30T16:19:21;7;6;
78063;PMS5003;67429;51.596;-3.264;2023-09-30T16:21:46;9;8;
78063;PMS5003;67429;51.596;-3.264;2023-09-30T16:24:12;7;7;
78063;PMS5003;67429;51.596;-3.264;2023-09-30T16:26:37;8;7;
78063;PMS5003;67429;51.596;-3.264;2023-09-30T16:29:03;10;9;
78063;PMS5003;67429;51.596;-3.264;2023-09-30T16:31:28;8;8;
78063;PMS5003;67429;51.596;-3.264;2023-09-30T16:33:53;8;8;
78063;PMS5003;67429;51.596;-3.264;2023-09-30T16:36:18;8;6;
78063;PMS5003;67429;51.596;-3.264;2023-09-30T16:38:44;11;11;
78063;PMS5003;67429;51.596;-3.264;2023-09-30T16:41:10;11;8;
78063;PMS5003;67429;51.596;-3.264;2023-09-30T16:43:35;7;7;